createdAt,value
2022-07-31T00:01:55.437Z,0.00
2022-07-31T00:06:54.552Z,0.00
2022-07-31T00:11:55.668Z,0.00
2022-07-31T00:16:57.783Z,0.00
2022-07-31T00:21:58.883Z,0.00
2022-07-31T00:26:59.012Z,0.00
2022-07-31T00:31:58.115Z,0.00
2022-07-31T00:37:00.603Z,0.00
2022-07-31T00:41:59.960Z,0.00
2022-07-31T00:47:02.454Z,0.00
2022-07-31T00:52:02.491Z,0.00
2022-07-31T00:57:01.851Z,0.00
2022-07-31T01:02:03.125Z,0.00
2022-07-31T01:07:03.564Z,0.00
2022-07-31T01:12:03.764Z,0.00
2022-07-31T01:17:04.104Z,0.00
2022-07-31T01:22:04.486Z,0.00
2022-07-31T01:27:05.796Z,0.00
2022-07-31T01:32:07.055Z,0.00
2022-07-31T01:37:07.197Z,0.00
2022-07-31T01:42:08.610Z,0.00
2022-07-31T01:47:07.720Z,0.00
2022-07-31T01:52:08.827Z,0.00
2022-07-31T01:57:09.955Z,0.00
2022-07-31T02:02:11.100Z,0.00
2022-07-31T02:07:11.758Z,0.00
2022-07-31T02:12:12.190Z,0.00
2022-07-31T02:17:12.443Z,0.00
2022-07-31T02:22:11.541Z,0.00
2022-07-31T02:27:58.065Z,0.00
2022-07-31T02:32:14.875Z,0.00
2022-07-31T02:37:14.126Z,0.00
2022-07-31T02:42:15.258Z,0.00
2022-07-31T02:47:16.367Z,0.00
2022-07-31T02:52:17.464Z,0.00
2022-07-31T02:57:18.656Z,0.00
2022-07-31T03:02:20.734Z,0.00
2022-07-31T03:07:19.880Z,0.00
2022-07-31T03:12:20.977Z,0.00
2022-07-31T03:17:22.100Z,0.00
2022-07-31T03:22:25.222Z,0.00
2022-07-31T03:27:25.358Z,0.00
2022-07-31T03:32:24.487Z,4.00
2022-07-31T03:37:25.627Z,0.00
2022-07-31T03:42:26.755Z,4.00
2022-07-31T03:47:27.887Z,12.00
2022-07-31T03:52:29.990Z,24.00
2022-07-31T03:57:31.117Z,52.00
2022-07-31T04:02:31.882Z,84.00
2022-07-31T04:07:32.620Z,104.00
2022-07-31T04:12:31.748Z,132.00
2022-07-31T04:17:34.857Z,152.00
2022-07-31T04:22:33.987Z,192.00
2022-07-31T04:27:36.176Z,212.00
2022-07-31T04:32:36.134Z,284.00
2022-07-31T04:37:37.242Z,468.00
2022-07-31T04:42:38.379Z,612.00
2022-07-31T04:47:40.506Z,588.00
2022-07-31T04:52:40.668Z,672.00
2022-07-31T04:57:39.779Z,856.00
2022-07-31T05:02:40.936Z,968.00
2022-07-31T05:07:42.043Z,1092.00
2022-07-31T05:12:43.212Z,1364.00
2022-07-31T05:17:45.334Z,1544.00
2022-07-31T05:22:45.439Z,1612.00
2022-07-31T05:27:46.540Z,1972.00
2022-07-31T05:32:45.242Z,2652.00
2022-07-31T05:37:48.369Z,2592.00
2022-07-31T05:42:47.523Z,3168.00
2022-07-31T05:47:49.627Z,4316.00
2022-07-31T05:52:47.720Z,5808.00
2022-07-31T05:57:48.838Z,5708.00
2022-07-31T06:02:49.952Z,6060.00
2022-07-31T06:07:52.245Z,6328.00
2022-07-31T06:12:51.570Z,6892.00
2022-07-31T06:17:52.738Z,6872.00
2022-07-31T06:22:53.868Z,7720.00
2022-07-31T06:28:00.849Z,7032.00
2022-07-31T06:32:54.931Z,5952.00
2022-07-31T06:37:57.081Z,6132.00
2022-07-31T06:42:56.189Z,6092.00
2022-07-31T06:47:58.318Z,5992.00
2022-07-31T06:52:57.423Z,5988.00
2022-07-31T06:57:58.592Z,5968.00
2022-07-31T07:03:00.696Z,6056.00
2022-07-31T07:07:59.839Z,6148.00
2022-07-31T07:13:01.961Z,6252.00
2022-07-31T07:18:01.099Z,6396.00
2022-07-31T07:23:07.260Z,6384.00
2022-07-31T07:28:02.397Z,6512.00
2022-07-31T07:33:03.505Z,6512.00
2022-07-31T07:38:04.638Z,5944.00
2022-07-31T07:43:05.203Z,6584.00
2022-07-31T07:48:07.285Z,6280.00
2022-07-31T07:53:04.699Z,6176.00
2022-07-31T07:58:08.842Z,6180.00
2022-07-31T08:03:48.854Z,6232.00
2022-07-31T08:08:05.831Z,7596.00
2022-07-31T08:13:06.955Z,6644.00
2022-07-31T08:18:08.100Z,7812.00
2022-07-31T08:23:09.247Z,5616.00
2022-07-31T08:28:13.950Z,6528.00
2022-07-31T08:33:10.410Z,6388.00
2022-07-31T08:38:11.583Z,6768.00
2022-07-31T08:44:02.539Z,7396.00
2022-07-31T08:48:12.777Z,7820.00
2022-07-31T08:53:14.037Z,7512.00
2022-07-31T08:58:15.184Z,6632.00
2022-07-31T09:03:16.338Z,6468.00
2022-07-31T09:08:17.482Z,6288.00
2022-07-31T09:13:19.643Z,6244.00
2022-07-31T09:18:19.764Z,6432.00
2022-07-31T09:23:20.906Z,6452.00
2022-07-31T09:28:23.281Z,6420.00
2022-07-31T09:33:19.509Z,6308.00
2022-07-31T09:38:19.625Z,6340.00
2022-07-31T09:43:18.755Z,6488.00
2022-07-31T09:48:26.314Z,6596.00
2022-07-31T09:53:20.891Z,6708.00
2022-07-31T09:58:22.051Z,6428.00
2022-07-31T10:03:24.339Z,7016.00
2022-07-31T10:08:24.536Z,7264.00
2022-07-31T10:13:22.646Z,5380.00
2022-07-31T10:18:35.654Z,7444.00
2022-07-31T10:23:23.723Z,5376.00
2022-07-31T10:28:25.846Z,5536.00
2022-07-31T10:38:24.924Z,6964.00
2022-07-31T10:43:27.076Z,7116.00
2022-07-31T10:48:26.212Z,4904.00
2022-07-31T10:53:50.543Z,6312.00
2022-07-31T10:58:27.325Z,8136.00
2022-07-31T11:03:28.452Z,9596.00
2022-07-31T11:08:29.549Z,10316.00
2022-07-31T11:13:36.638Z,9736.00
2022-07-31T11:18:34.355Z,8852.00
2022-07-31T11:23:32.820Z,5840.00
2022-07-31T11:28:32.976Z,5504.00
2022-07-31T11:33:41.487Z,5224.00
2022-07-31T11:38:33.091Z,4220.00
2022-07-31T11:43:34.239Z,3616.00
2022-07-31T11:48:39.948Z,4308.00
2022-07-31T11:53:36.347Z,6244.00
2022-07-31T11:58:35.484Z,6380.00
2022-07-31T12:03:36.625Z,5492.00
2022-07-31T12:08:37.752Z,4804.00
2022-07-31T12:13:39.012Z,5052.00
2022-07-31T12:18:41.373Z,5796.00
2022-07-31T12:23:41.789Z,7112.00
2022-07-31T12:28:41.255Z,7172.00
2022-07-31T12:33:43.373Z,6456.00
2022-07-31T12:38:47.822Z,6336.00
2022-07-31T12:43:51.036Z,9948.00
2022-07-31T12:48:46.095Z,8768.00
2022-07-31T12:53:44.470Z,7720.00
2022-07-31T12:58:43.583Z,7024.00
2022-07-31T13:03:45.897Z,6776.00
2022-07-31T13:08:45.612Z,9344.00
2022-07-31T13:13:46.744Z,9516.00
2022-07-31T13:18:47.892Z,9376.00
2022-07-31T13:23:52.043Z,6144.00
2022-07-31T13:28:49.230Z,7508.00
2022-07-31T13:33:50.363Z,8456.00
2022-07-31T13:38:53.504Z,8412.00
2022-07-31T13:44:00.154Z,8388.00
2022-07-31T13:48:53.688Z,8532.00
2022-07-31T13:53:55.869Z,8564.00
2022-07-31T13:58:55.021Z,4388.00
2022-07-31T14:03:56.245Z,7224.00
2022-07-31T14:08:58.213Z,7508.00
2022-07-31T14:14:01.377Z,7536.00
2022-07-31T14:18:58.507Z,7912.00
2022-07-31T14:23:59.689Z,5700.00
2022-07-31T14:29:06.720Z,8168.00
2022-07-31T14:34:01.797Z,8052.00
2022-07-31T14:39:03.922Z,8544.00
2022-07-31T14:44:03.056Z,9180.00
2022-07-31T14:49:04.204Z,9012.00
2022-07-31T14:54:05.316Z,9372.00
2022-07-31T14:59:06.547Z,9584.00
2022-07-31T15:04:08.692Z,6588.00
2022-07-31T15:09:07.790Z,7252.00
2022-07-31T15:14:09.946Z,8628.00
2022-07-31T15:19:09.044Z,6616.00
2022-07-31T15:24:09.185Z,6208.00
2022-07-31T15:29:10.299Z,5540.00
2022-07-31T15:34:12.421Z,7520.00
2022-07-31T15:39:12.525Z,8700.00
2022-07-31T15:44:13.661Z,7208.00
2022-07-31T15:49:13.917Z,3916.00
2022-07-31T15:54:14.187Z,8504.00
2022-07-31T15:59:15.310Z,7980.00
2022-07-31T16:04:17.062Z,7996.00
2022-07-31T16:09:16.278Z,8032.00
2022-07-31T16:14:18.408Z,7984.00
2022-07-31T16:19:18.544Z,7768.00
2022-07-31T16:24:18.452Z,7040.00
2022-07-31T16:29:17.875Z,4480.00
2022-07-31T16:34:17.567Z,7040.00
2022-07-31T16:39:20.704Z,4652.00
2022-07-31T16:44:20.916Z,3204.00
2022-07-31T16:49:35.305Z,6488.00
2022-07-31T16:54:20.159Z,6392.00
2022-07-31T16:59:22.330Z,6048.00
2022-07-31T17:04:22.458Z,5920.00
2022-07-31T17:09:22.600Z,5748.00
2022-07-31T17:14:21.734Z,5452.00
2022-07-31T17:19:41.996Z,5248.00
2022-07-31T17:24:23.969Z,5228.00
2022-07-31T17:29:23.217Z,4852.00
2022-07-31T17:34:24.330Z,4592.00
2022-07-31T17:39:30.593Z,2184.00
2022-07-31T17:44:28.084Z,3732.00
2022-07-31T17:49:27.496Z,3520.00
2022-07-31T17:54:29.650Z,3192.00
2022-07-31T17:59:29.776Z,2768.00
2022-07-31T18:04:28.882Z,2228.00
2022-07-31T18:09:31.007Z,1888.00
2022-07-31T18:14:32.122Z,1588.00
2022-07-31T18:19:31.254Z,1340.00
2022-07-31T18:24:32.377Z,1148.00
2022-07-31T18:29:34.539Z,868.00
2022-07-31T18:34:33.668Z,688.00
2022-07-31T18:39:49.166Z,504.00
2022-07-31T18:44:35.753Z,352.00
2022-07-31T18:51:00.670Z,244.00
2022-07-31T18:54:36.965Z,168.00
2022-07-31T18:59:38.086Z,104.00
2022-07-31T19:04:39.234Z,60.00
2022-07-31T19:09:40.335Z,32.00
2022-07-31T19:14:41.543Z,16.00
2022-07-31T19:19:43.555Z,8.00
2022-07-31T19:24:43.865Z,4.00
2022-07-31T19:29:43.038Z,0.00
2022-07-31T19:34:48.102Z,0.00
2022-07-31T19:39:45.220Z,0.00
2022-07-31T19:44:44.356Z,0.00
2022-07-31T19:49:44.575Z,0.00
2022-07-31T19:54:45.942Z,0.00
2022-07-31T19:59:47.426Z,0.00
2022-07-31T20:04:47.610Z,0.00
2022-07-31T20:09:47.750Z,0.00
2022-07-31T20:14:46.918Z,0.00
2022-07-31T20:20:13.308Z,0.00
2022-07-31T20:24:48.137Z,0.00
2022-07-31T20:29:49.333Z,0.00
2022-07-31T20:34:50.542Z,0.00
2022-07-31T20:39:52.750Z,0.00
2022-07-31T20:44:51.882Z,0.00
2022-07-31T20:49:53.036Z,0.00
2022-07-31T20:54:54.288Z,0.00
2022-07-31T20:59:55.394Z,0.00
2022-07-31T21:04:56.504Z,0.00
2022-07-31T21:09:57.658Z,0.00
2022-07-31T21:14:59.774Z,0.00
2022-07-31T21:19:59.904Z,0.00
2022-07-31T21:24:59.046Z,0.00
2022-07-31T21:30:00.199Z,0.00
2022-07-31T21:35:02.317Z,0.00
2022-07-31T21:40:02.415Z,0.00
2022-07-31T21:45:01.623Z,0.00
2022-07-31T21:50:01.643Z,0.00
2022-07-31T21:55:02.746Z,0.00
2022-07-31T22:00:04.852Z,0.00
2022-07-31T22:05:03.959Z,0.00
2022-07-31T22:10:05.072Z,0.00
2022-07-31T22:15:07.189Z,0.00
2022-07-31T22:20:06.433Z,0.00
2022-07-31T22:25:07.525Z,0.00
2022-07-31T22:30:09.675Z,0.00
2022-07-31T22:35:08.767Z,0.00
2022-07-31T22:40:10.902Z,0.00
2022-07-31T22:45:11.000Z,0.00
2022-07-31T22:50:10.100Z,0.00
2022-07-31T22:55:10.613Z,0.00
2022-07-31T23:00:09.776Z,0.00
2022-07-31T23:05:10.883Z,0.00
2022-07-31T23:10:12.001Z,0.00
2022-07-31T23:15:13.137Z,0.00
2022-07-31T23:20:14.262Z,0.00
2022-07-31T23:25:16.369Z,0.00
2022-07-31T23:30:15.481Z,0.00
2022-07-31T23:35:16.638Z,0.00
2022-07-31T23:40:18.891Z,0.00
2022-07-31T23:45:17.994Z,0.00
2022-07-31T23:50:19.079Z,0.00
2022-07-31T23:55:20.233Z,0.00
